sensor_id;sensor_type;location;lat;lon;timestamp;P1;durP1;ratioP1;P2;durP2;ratioP2
10009;SDS011;5044;48.652;9.250;2022-07-30T00:02:09;5.97;;;2.40;;
10009;SDS011;5044;48.652;9.250;2022-07-30T00:04:36;3.22;;;2.22;;
10009;SDS011;5044;48.652;9.250;2022-07-30T00:07:03;2.22;;;1.98;;
10009;SDS011;5044;48.652;9.250;2022-07-30T00:09:30;5.25;;;2.35;;
10009;SDS011;5044;48.652;9.250;2022-07-30T00:11:58;2.60;;;1.88;;
10009;SDS011;5044;48.652;9.250;2022-07-30T00:14:26;3.70;;;1.80;;
10009;SDS011;5044;48.652;9.250;2022-07-30T00:16:53;2.20;;;1.85;;
10009;SDS011;5044;48.652;9.250;2022-07-30T00:19:20;2.88;;;2.45;;
10009;SDS011;5044;48.652;9.250;2022-07-30T00:21:46;2.67;;;2.05;;
10009;SDS011;5044;48.652;9.250;2022-07-30T00:24:13;5.13;;;2.28;;
10009;SDS011;5044;48.652;9.250;2022-07-30T00:26:40;2.40;;;1.98;;
10009;SDS011;5044;48.652;9.250;2022-07-30T00:29:22;4.23;;;2.40;;
10009;SDS011;5044;48.652;9.250;2022-07-30T00:31:49;2.65;;;1.77;;
10009;SDS011;5044;48.652;9.250;2022-07-30T00:34:16;3.65;;;1.95;;
10009;SDS011;5044;48.652;9.250;2022-07-30T00:36:43;4.00;;;1.90;;
10009;SDS011;5044;48.652;9.250;2022-07-30T00:39:10;4.60;;;1.90;;
10009;SDS011;5044;48.652;9.250;2022-07-30T00:41:51;3.10;;;1.98;;
10009;SDS011;5044;48.652;9.250;2022-07-30T00:44:19;4.38;;;1.98;;
10009;SDS011;5044;48.652;9.250;2022-07-30T00:46:47;1.67;;;1.58;;
10009;SDS011;5044;48.652;9.250;2022-07-30T00:49:15;5.15;;;1.83;;
10009;SDS011;5044;48.652;9.250;2022-07-30T00:51:42;2.38;;;1.88;;
10009;SDS011;5044;48.652;9.250;2022-07-30T00:54:09;3.45;;;1.83;;
10009;SDS011;5044;48.652;9.250;2022-07-30T00:56:36;2.78;;;1.85;;
10009;SDS011;5044;48.652;9.250;2022-07-30T00:59:03;2.88;;;1.90;;
10009;SDS011;5044;48.652;9.250;2022-07-30T01:01:30;2.03;;;1.65;;
10009;SDS011;5044;48.652;9.250;2022-07-30T01:03:59;1.70;;;1.45;;
10009;SDS011;5044;48.652;9.250;2022-07-30T01:06:26;5.15;;;2.70;;
10009;SDS011;5044;48.652;9.250;2022-07-30T01:08:53;2.75;;;1.70;;
10009;SDS011;5044;48.652;9.250;2022-07-30T01:11:21;2.55;;;1.95;;
10009;SDS011;5044;48.652;9.250;2022-07-30T01:13:52;3.05;;;1.77;;
10009;SDS011;5044;48.652;9.250;2022-07-30T01:16:19;5.35;;;2.10;;
10009;SDS011;5044;48.652;9.250;2022-07-30T01:18:48;2.38;;;1.80;;
10009;SDS011;5044;48.652;9.250;2022-07-30T01:21:35;1.80;;;1.63;;
10009;SDS011;5044;48.652;9.250;2022-07-30T01:24:13;2.45;;;2.03;;
10009;SDS011;5044;48.652;9.250;2022-07-30T01:26:52;7.03;;;2.35;;
10009;SDS011;5044;48.652;9.250;2022-07-30T01:29:23;4.57;;;1.92;;
10009;SDS011;5044;48.652;9.250;2022-07-30T01:31:53;2.13;;;1.33;;
10009;SDS011;5044;48.652;9.250;2022-07-30T01:34:24;3.33;;;1.80;;
10009;SDS011;5044;48.652;9.250;2022-07-30T01:36:53;3.60;;;2.50;;
10009;SDS011;5044;48.652;9.250;2022-07-30T01:39:22;4.85;;;2.20;;
10009;SDS011;5044;48.652;9.250;2022-07-30T01:41:53;1.95;;;1.77;;
10009;SDS011;5044;48.652;9.250;2022-07-30T01:44:21;3.95;;;1.80;;
10009;SDS011;5044;48.652;9.250;2022-07-30T01:46:51;3.05;;;2.00;;
10009;SDS011;5044;48.652;9.250;2022-07-30T01:49:19;3.28;;;2.38;;
10009;SDS011;5044;48.652;9.250;2022-07-30T01:51:47;2.60;;;1.50;;
10009;SDS011;5044;48.652;9.250;2022-07-30T01:54:15;2.38;;;2.10;;
10009;SDS011;5044;48.652;9.250;2022-07-30T01:56:44;2.08;;;1.88;;
10009;SDS011;5044;48.652;9.250;2022-07-30T01:59:14;2.00;;;1.73;;
10009;SDS011;5044;48.652;9.250;2022-07-30T02:04:11;2.08;;;1.80;;
10009;SDS011;5044;48.652;9.250;2022-07-30T02:06:41;5.90;;;2.35;;
10009;SDS011;5044;48.652;9.250;2022-07-30T02:09:12;4.13;;;2.00;;
10009;SDS011;5044;48.652;9.250;2022-07-30T02:11:43;2.65;;;2.00;;
10009;SDS011;5044;48.652;9.250;2022-07-30T02:14:33;5.80;;;2.47;;
10009;SDS011;5044;48.652;9.250;2022-07-30T02:17:05;4.10;;;1.73;;
10009;SDS011;5044;48.652;9.250;2022-07-30T02:19:35;4.22;;;2.28;;
10009;SDS011;5044;48.652;9.250;2022-07-30T02:22:07;2.00;;;1.80;;
10009;SDS011;5044;48.652;9.250;2022-07-30T02:24:36;5.15;;;2.70;;
10009;SDS011;5044;48.652;9.250;2022-07-30T02:27:09;4.10;;;2.25;;
10009;SDS011;5044;48.652;9.250;2022-07-30T02:29:41;2.67;;;1.98;;
10009;SDS011;5044;48.652;9.250;2022-07-30T02:32:10;4.45;;;2.20;;
10009;SDS011;5044;48.652;9.250;2022-07-30T02:34:40;2.77;;;2.10;;
10009;SDS011;5044;48.652;9.250;2022-07-30T02:37:09;3.70;;;2.47;;
10009;SDS011;5044;48.652;9.250;2022-07-30T02:39:38;2.47;;;1.90;;
10009;SDS011;5044;48.652;9.250;2022-07-30T02:42:07;2.35;;;1.95;;
10009;SDS011;5044;48.652;9.250;2022-07-30T02:44:38;4.00;;;1.80;;
10009;SDS011;5044;48.652;9.250;2022-07-30T02:47:10;3.05;;;1.85;;
10009;SDS011;5044;48.652;9.250;2022-07-30T02:49:40;1.98;;;1.70;;
10009;SDS011;5044;48.652;9.250;2022-07-30T02:52:16;2.15;;;1.80;;
10009;SDS011;5044;48.652;9.250;2022-07-30T02:54:44;2.08;;;1.80;;
10009;SDS011;5044;48.652;9.250;2022-07-30T02:57:13;4.00;;;2.22;;
10009;SDS011;5044;48.652;9.250;2022-07-30T02:59:42;2.80;;;2.13;;
10009;SDS011;5044;48.652;9.250;2022-07-30T03:02:11;3.60;;;1.80;;
10009;SDS011;5044;48.652;9.250;2022-07-30T03:04:39;1.73;;;1.63;;
10009;SDS011;5044;48.652;9.250;2022-07-30T03:07:07;2.35;;;2.00;;
10009;SDS011;5044;48.652;9.250;2022-07-30T03:09:36;2.80;;;2.22;;
10009;SDS011;5044;48.652;9.250;2022-07-30T03:12:06;1.67;;;1.58;;
10009;SDS011;5044;48.652;9.250;2022-07-30T03:14:36;9.43;;;2.58;;
10009;SDS011;5044;48.652;9.250;2022-07-30T03:17:04;3.05;;;2.45;;
10009;SDS011;5044;48.652;9.250;2022-07-30T03:19:32;5.03;;;2.72;;
10009;SDS011;5044;48.652;9.250;2022-07-30T03:22:04;2.70;;;2.05;;
10009;SDS011;5044;48.652;9.250;2022-07-30T03:24:33;2.38;;;2.08;;
10009;SDS011;5044;48.652;9.250;2022-07-30T03:27:01;3.15;;;2.28;;
10009;SDS011;5044;48.652;9.250;2022-07-30T03:29:29;4.72;;;2.53;;
10009;SDS011;5044;48.652;9.250;2022-07-30T03:31:58;2.47;;;1.63;;
10009;SDS011;5044;48.652;9.250;2022-07-30T03:34:26;3.28;;;2.00;;
10009;SDS011;5044;48.652;9.250;2022-07-30T03:36:54;2.15;;;1.90;;
10009;SDS011;5044;48.652;9.250;2022-07-30T03:39:21;3.42;;;2.00;;
10009;SDS011;5044;48.652;9.250;2022-07-30T03:41:49;1.75;;;1.50;;
10009;SDS011;5044;48.652;9.250;2022-07-30T03:44:17;4.93;;;1.80;;
10009;SDS011;5044;48.652;9.250;2022-07-30T03:46:44;3.70;;;2.42;;
10009;SDS011;5044;48.652;9.250;2022-07-30T03:49:14;5.55;;;1.80;;
10009;SDS011;5044;48.652;9.250;2022-07-30T03:51:43;4.15;;;2.70;;
10009;SDS011;5044;48.652;9.250;2022-07-30T03:54:11;2.40;;;2.00;;
10009;SDS011;5044;48.652;9.250;2022-07-30T03:56:38;2.10;;;1.67;;
10009;SDS011;5044;48.652;9.250;2022-07-30T03:59:05;4.95;;;2.70;;
10009;SDS011;5044;48.652;9.250;2022-07-30T04:01:33;2.40;;;1.67;;
10009;SDS011;5044;48.652;9.250;2022-07-30T04:04:03;2.65;;;1.80;;
10009;SDS011;5044;48.652;9.250;2022-07-30T04:06:30;2.23;;;1.90;;
10009;SDS011;5044;48.652;9.250;2022-07-30T04:09:01;3.35;;;2.10;;
10009;SDS011;5044;48.652;9.250;2022-07-30T04:11:28;3.85;;;1.92;;
10009;SDS011;5044;48.652;9.250;2022-07-30T04:13:55;1.73;;;1.58;;
10009;SDS011;5044;48.652;9.250;2022-07-30T04:16:22;3.00;;;2.10;;
10009;SDS011;5044;48.652;9.250;2022-07-30T04:19:00;3.20;;;1.95;;
10009;SDS011;5044;48.652;9.250;2022-07-30T04:21:30;3.53;;;2.33;;
10009;SDS011;5044;48.652;9.250;2022-07-30T04:23:58;2.38;;;2.15;;
10009;SDS011;5044;48.652;9.250;2022-07-30T04:26:28;2.05;;;1.85;;
10009;SDS011;5044;48.652;9.250;2022-07-30T04:28:57;3.42;;;2.17;;
10009;SDS011;5044;48.652;9.250;2022-07-30T04:31:24;2.15;;;1.95;;
10009;SDS011;5044;48.652;9.250;2022-07-30T04:33:52;2.00;;;1.80;;
10009;SDS011;5044;48.652;9.250;2022-07-30T04:36:19;2.92;;;2.10;;
10009;SDS011;5044;48.652;9.250;2022-07-30T04:38:46;2.53;;;2.08;;
10009;SDS011;5044;48.652;9.250;2022-07-30T04:41:13;2.63;;;2.20;;
10009;SDS011;5044;48.652;9.250;2022-07-30T04:43:41;2.08;;;1.88;;
10009;SDS011;5044;48.652;9.250;2022-07-30T04:46:08;2.35;;;2.13;;
10009;SDS011;5044;48.652;9.250;2022-07-30T04:48:35;4.60;;;2.40;;
10009;SDS011;5044;48.652;9.250;2022-07-30T04:51:02;2.60;;;1.92;;
10009;SDS011;5044;48.652;9.250;2022-07-30T04:53:33;2.63;;;2.00;;
10009;SDS011;5044;48.652;9.250;2022-07-30T04:56:00;7.93;;;2.22;;
10009;SDS011;5044;48.652;9.250;2022-07-30T04:58:29;4.60;;;2.70;;
10009;SDS011;5044;48.652;9.250;2022-07-30T05:01:00;5.95;;;3.00;;
10009;SDS011;5044;48.652;9.250;2022-07-30T05:03:27;4.07;;;2.72;;
10009;SDS011;5044;48.652;9.250;2022-07-30T05:05:56;3.20;;;2.08;;
10009;SDS011;5044;48.652;9.250;2022-07-30T05:08:25;3.03;;;2.10;;
10009;SDS011;5044;48.652;9.250;2022-07-30T05:10:52;3.05;;;2.17;;
10009;SDS011;5044;48.652;9.250;2022-07-30T05:13:19;2.83;;;2.20;;
10009;SDS011;5044;48.652;9.250;2022-07-30T05:15:46;2.28;;;1.90;;
10009;SDS011;5044;48.652;9.250;2022-07-30T05:18:14;3.03;;;2.70;;
10009;SDS011;5044;48.652;9.250;2022-07-30T05:20:41;3.53;;;2.83;;
10009;SDS011;5044;48.652;9.250;2022-07-30T05:23:08;2.17;;;1.98;;
10009;SDS011;5044;48.652;9.250;2022-07-30T05:25:35;2.63;;;2.28;;
10009;SDS011;5044;48.652;9.250;2022-07-30T05:28:02;4.53;;;3.10;;
10009;SDS011;5044;48.652;9.250;2022-07-30T05:30:29;3.75;;;2.78;;
10009;SDS011;5044;48.652;9.250;2022-07-30T05:32:55;3.30;;;2.42;;
10009;SDS011;5044;48.652;9.250;2022-07-30T05:35:23;3.60;;;2.40;;
10009;SDS011;5044;48.652;9.250;2022-07-30T05:37:50;2.70;;;2.45;;
10009;SDS011;5044;48.652;9.250;2022-07-30T05:40:17;11.48;;;3.50;;
10009;SDS011;5044;48.652;9.250;2022-07-30T05:42:44;3.97;;;3.28;;
10009;SDS011;5044;48.652;9.250;2022-07-30T05:45:11;6.13;;;3.60;;
10009;SDS011;5044;48.652;9.250;2022-07-30T05:47:38;5.28;;;3.03;;
10009;SDS011;5044;48.652;9.250;2022-07-30T05:50:05;5.88;;;3.60;;
10009;SDS011;5044;48.652;9.250;2022-07-30T05:52:33;8.60;;;4.53;;
10009;SDS011;5044;48.652;9.250;2022-07-30T05:55:00;5.65;;;3.70;;
10009;SDS011;5044;48.652;9.250;2022-07-30T05:57:27;5.63;;;3.67;;
10009;SDS011;5044;48.652;9.250;2022-07-30T05:59:54;5.03;;;3.80;;
10009;SDS011;5044;48.652;9.250;2022-07-30T06:02:21;6.13;;;3.38;;
10009;SDS011;5044;48.652;9.250;2022-07-30T06:04:48;3.67;;;3.08;;
10009;SDS011;5044;48.652;9.250;2022-07-30T06:07:15;5.15;;;2.97;;
10009;SDS011;5044;48.652;9.250;2022-07-30T06:09:43;5.63;;;2.75;;
10009;SDS011;5044;48.652;9.250;2022-07-30T06:12:10;7.88;;;3.05;;
10009;SDS011;5044;48.652;9.250;2022-07-30T06:14:36;4.53;;;3.10;;
10009;SDS011;5044;48.652;9.250;2022-07-30T06:17:03;5.72;;;3.50;;
10009;SDS011;5044;48.652;9.250;2022-07-30T06:19:30;7.45;;;3.58;;
10009;SDS011;5044;48.652;9.250;2022-07-30T06:21:57;3.97;;;2.88;;
10009;SDS011;5044;48.652;9.250;2022-07-30T06:24:24;5.35;;;2.47;;
10009;SDS011;5044;48.652;9.250;2022-07-30T06:26:52;5.13;;;3.47;;
10009;SDS011;5044;48.652;9.250;2022-07-30T06:29:19;5.72;;;3.15;;
10009;SDS011;5044;48.652;9.250;2022-07-30T06:31:46;3.55;;;2.70;;
10009;SDS011;5044;48.652;9.250;2022-07-30T06:34:13;4.65;;;3.40;;
10009;SDS011;5044;48.652;9.250;2022-07-30T06:36:39;4.55;;;3.28;;
10009;SDS011;5044;48.652;9.250;2022-07-30T06:39:06;6.72;;;3.17;;
10009;SDS011;5044;48.652;9.250;2022-07-30T06:41:33;8.93;;;3.40;;
10009;SDS011;5044;48.652;9.250;2022-07-30T06:44:01;5.28;;;3.60;;
10009;SDS011;5044;48.652;9.250;2022-07-30T06:46:28;4.22;;;2.90;;
10009;SDS011;5044;48.652;9.250;2022-07-30T06:48:55;3.50;;;2.42;;
10009;SDS011;5044;48.652;9.250;2022-07-30T06:51:22;5.55;;;3.35;;
10009;SDS011;5044;48.652;9.250;2022-07-30T06:53:49;7.22;;;3.78;;
10009;SDS011;5044;48.652;9.250;2022-07-30T06:56:16;7.18;;;2.95;;
10009;SDS011;5044;48.652;9.250;2022-07-30T06:58:43;5.20;;;3.60;;
10009;SDS011;5044;48.652;9.250;2022-07-30T07:01:11;5.57;;;3.42;;
10009;SDS011;5044;48.652;9.250;2022-07-30T07:03:38;5.18;;;3.33;;
10009;SDS011;5044;48.652;9.250;2022-07-30T07:06:05;8.38;;;3.70;;
10009;SDS011;5044;48.652;9.250;2022-07-30T07:08:32;6.13;;;3.42;;
10009;SDS011;5044;48.652;9.250;2022-07-30T07:11:01;7.53;;;3.63;;
10009;SDS011;5044;48.652;9.250;2022-07-30T07:13:27;4.40;;;3.50;;
10009;SDS011;5044;48.652;9.250;2022-07-30T07:15:55;6.82;;;4.43;;
10009;SDS011;5044;48.652;9.250;2022-07-30T07:18:23;7.22;;;4.20;;
10009;SDS011;5044;48.652;9.250;2022-07-30T07:20:50;5.80;;;3.20;;
10009;SDS011;5044;48.652;9.250;2022-07-30T07:23:17;4.07;;;2.42;;
10009;SDS011;5044;48.652;9.250;2022-07-30T07:25:44;7.50;;;4.07;;
10009;SDS011;5044;48.652;9.250;2022-07-30T07:28:11;9.07;;;4.05;;
10009;SDS011;5044;48.652;9.250;2022-07-30T07:34:01;4.68;;;4.15;;
10009;SDS011;5044;48.652;9.250;2022-07-30T07:36:28;6.00;;;4.20;;
10009;SDS011;5044;48.652;9.250;2022-07-30T07:38:55;5.93;;;3.97;;
10009;SDS011;5044;48.652;9.250;2022-07-30T07:41:22;4.25;;;3.50;;
10009;SDS011;5044;48.652;9.250;2022-07-30T07:43:50;9.15;;;3.05;;
10009;SDS011;5044;48.652;9.250;2022-07-30T07:46:17;6.55;;;4.07;;
10009;SDS011;5044;48.652;9.250;2022-07-30T07:48:43;8.38;;;3.63;;
10009;SDS011;5044;48.652;9.250;2022-07-30T07:51:12;3.55;;;2.80;;
10009;SDS011;5044;48.652;9.250;2022-07-30T07:53:39;7.30;;;3.90;;
10009;SDS011;5044;48.652;9.250;2022-07-30T07:56:06;7.28;;;3.90;;
10009;SDS011;5044;48.652;9.250;2022-07-30T07:58:33;7.57;;;3.60;;
10009;SDS011;5044;48.652;9.250;2022-07-30T08:01:00;6.32;;;3.67;;
10009;SDS011;5044;48.652;9.250;2022-07-30T08:03:27;4.70;;;3.00;;
10009;SDS011;5044;48.652;9.250;2022-07-30T08:05:54;4.55;;;3.08;;
10009;SDS011;5044;48.652;9.250;2022-07-30T08:08:22;4.85;;;2.97;;
10009;SDS011;5044;48.652;9.250;2022-07-30T08:10:49;8.70;;;2.97;;
10009;SDS011;5044;48.652;9.250;2022-07-30T08:13:16;7.50;;;3.33;;
10009;SDS011;5044;48.652;9.250;2022-07-30T08:15:43;2.72;;;2.40;;
10009;SDS011;5044;48.652;9.250;2022-07-30T08:18:10;4.97;;;3.08;;
10009;SDS011;5044;48.652;9.250;2022-07-30T08:20:37;7.30;;;2.58;;
10009;SDS011;5044;48.652;9.250;2022-07-30T08:23:05;5.20;;;2.72;;
10009;SDS011;5044;48.652;9.250;2022-07-30T08:25:34;8.32;;;3.15;;
10009;SDS011;5044;48.652;9.250;2022-07-30T08:28:01;2.10;;;1.52;;
10009;SDS011;5044;48.652;9.250;2022-07-30T08:30:28;3.45;;;2.17;;
10009;SDS011;5044;48.652;9.250;2022-07-30T08:32:55;5.53;;;2.50;;
10009;SDS011;5044;48.652;9.250;2022-07-30T08:35:22;5.80;;;2.13;;
10009;SDS011;5044;48.652;9.250;2022-07-30T08:37:49;3.03;;;2.22;;
10009;SDS011;5044;48.652;9.250;2022-07-30T08:40:16;4.90;;;2.15;;
10009;SDS011;5044;48.652;9.250;2022-07-30T08:42:45;4.30;;;2.22;;
10009;SDS011;5044;48.652;9.250;2022-07-30T08:45:12;2.65;;;2.13;;
10009;SDS011;5044;48.652;9.250;2022-07-30T08:47:43;5.80;;;1.73;;
10009;SDS011;5044;48.652;9.250;2022-07-30T08:50:11;5.82;;;2.22;;
10009;SDS011;5044;48.652;9.250;2022-07-30T08:52:38;5.90;;;2.72;;
10009;SDS011;5044;48.652;9.250;2022-07-30T08:55:06;4.18;;;1.80;;
10009;SDS011;5044;48.652;9.250;2022-07-30T08:57:34;9.57;;;2.10;;
10009;SDS011;5044;48.652;9.250;2022-07-30T09:00:05;3.28;;;2.00;;
10009;SDS011;5044;48.652;9.250;2022-07-30T09:02:32;3.33;;;1.67;;
10009;SDS011;5044;48.652;9.250;2022-07-30T09:04:59;3.88;;;2.30;;
10009;SDS011;5044;48.652;9.250;2022-07-30T09:07:26;2.60;;;1.52;;
10009;SDS011;5044;48.652;9.250;2022-07-30T09:09:54;2.13;;;1.45;;
10009;SDS011;5044;48.652;9.250;2022-07-30T09:12:32;5.32;;;1.85;;
10009;SDS011;5044;48.652;9.250;2022-07-30T09:15:00;3.28;;;1.80;;
10009;SDS011;5044;48.652;9.250;2022-07-30T09:17:41;6.53;;;2.00;;
10009;SDS011;5044;48.652;9.250;2022-07-30T09:20:12;2.60;;;1.42;;
10009;SDS011;5044;48.652;9.250;2022-07-30T09:22:40;2.40;;;1.65;;
10009;SDS011;5044;48.652;9.250;2022-07-30T09:25:08;4.15;;;1.75;;
10009;SDS011;5044;48.652;9.250;2022-07-30T09:27:42;2.28;;;1.70;;
10009;SDS011;5044;48.652;9.250;2022-07-30T09:30:10;2.38;;;1.30;;
10009;SDS011;5044;48.652;9.250;2022-07-30T09:32:50;3.63;;;2.42;;
10009;SDS011;5044;48.652;9.250;2022-07-30T09:35:20;4.60;;;1.33;;
10009;SDS011;5044;48.652;9.250;2022-07-30T09:37:57;2.92;;;1.70;;
10009;SDS011;5044;48.652;9.250;2022-07-30T09:40:25;2.53;;;1.90;;
10009;SDS011;5044;48.652;9.250;2022-07-30T09:43:00;5.53;;;2.55;;
10009;SDS011;5044;48.652;9.250;2022-07-30T09:45:28;3.70;;;1.60;;
10009;SDS011;5044;48.652;9.250;2022-07-30T09:47:56;3.05;;;1.75;;
10009;SDS011;5044;48.652;9.250;2022-07-30T09:50:23;2.70;;;1.60;;
10009;SDS011;5044;48.652;9.250;2022-07-30T09:52:51;4.68;;;1.63;;
10009;SDS011;5044;48.652;9.250;2022-07-30T09:55:28;6.90;;;1.50;;
10009;SDS011;5044;48.652;9.250;2022-07-30T09:57:56;2.25;;;1.70;;
10009;SDS011;5044;48.652;9.250;2022-07-30T10:00:25;2.88;;;1.55;;
10009;SDS011;5044;48.652;9.250;2022-07-30T10:02:54;5.47;;;1.80;;
10009;SDS011;5044;48.652;9.250;2022-07-30T10:05:23;2.13;;;1.35;;
10009;SDS011;5044;48.652;9.250;2022-07-30T10:07:50;14.23;;;1.58;;
10009;SDS011;5044;48.652;9.250;2022-07-30T10:10:19;6.15;;;1.80;;
10009;SDS011;5044;48.652;9.250;2022-07-30T10:12:49;5.15;;;2.00;;
10009;SDS011;5044;48.652;9.250;2022-07-30T10:15:18;2.88;;;1.33;;
10009;SDS011;5044;48.652;9.250;2022-07-30T10:17:46;6.47;;;2.13;;
10009;SDS011;5044;48.652;9.250;2022-07-30T10:20:13;5.18;;;1.30;;
10009;SDS011;5044;48.652;9.250;2022-07-30T10:22:43;1.77;;;1.20;;
10009;SDS011;5044;48.652;9.250;2022-07-30T10:25:10;6.18;;;1.80;;
10009;SDS011;5044;48.652;9.250;2022-07-30T10:27:37;3.20;;;1.50;;
10009;SDS011;5044;48.652;9.250;2022-07-30T10:30:05;5.20;;;1.30;;
10009;SDS011;5044;48.652;9.250;2022-07-30T10:32:33;3.53;;;1.40;;
10009;SDS011;5044;48.652;9.250;2022-07-30T10:35:02;3.22;;;1.30;;
10009;SDS011;5044;48.652;9.250;2022-07-30T10:37:30;8.15;;;1.50;;
10009;SDS011;5044;48.652;9.250;2022-07-30T10:40:02;4.95;;;1.75;;
10009;SDS011;5044;48.652;9.250;2022-07-30T10:42:40;5.97;;;1.45;;
10009;SDS011;5044;48.652;9.250;2022-07-30T10:45:22;2.08;;;0.90;;
10009;SDS011;5044;48.652;9.250;2022-07-30T10:47:56;1.85;;;1.38;;
10009;SDS011;5044;48.652;9.250;2022-07-30T10:50:23;2.28;;;1.10;;
10009;SDS011;5044;48.652;9.250;2022-07-30T10:52:53;6.82;;;2.35;;
10009;SDS011;5044;48.652;9.250;2022-07-30T10:55:22;4.78;;;1.55;;
10009;SDS011;5044;48.652;9.250;2022-07-30T10:58:01;2.60;;;1.20;;
10009;SDS011;5044;48.652;9.250;2022-07-30T11:00:29;6.10;;;1.50;;
10009;SDS011;5044;48.652;9.250;2022-07-30T11:03:10;1.70;;;1.20;;
10009;SDS011;5044;48.652;9.250;2022-07-30T11:05:43;2.40;;;1.65;;
10009;SDS011;5044;48.652;9.250;2022-07-30T11:08:27;4.72;;;1.30;;
10009;SDS011;5044;48.652;9.250;2022-07-30T11:10:57;2.55;;;1.17;;
10009;SDS011;5044;48.652;9.250;2022-07-30T11:16:17;4.97;;;1.45;;
10009;SDS011;5044;48.652;9.250;2022-07-30T11:21:31;3.38;;;1.10;;
10009;SDS011;5044;48.652;9.250;2022-07-30T11:23:59;5.15;;;1.40;;
10009;SDS011;5044;48.652;9.250;2022-07-30T11:26:47;2.10;;;1.13;;
10009;SDS011;5044;48.652;9.250;2022-07-30T11:29:31;4.55;;;1.10;;
10009;SDS011;5044;48.652;9.250;2022-07-30T11:34:50;1.70;;;1.10;;
10009;SDS011;5044;48.652;9.250;2022-07-30T11:37:18;2.97;;;1.40;;
10009;SDS011;5044;48.652;9.250;2022-07-30T11:40:04;2.78;;;1.40;;
10009;SDS011;5044;48.652;9.250;2022-07-30T11:42:35;2.15;;;1.58;;
10009;SDS011;5044;48.652;9.250;2022-07-30T11:45:22;1.60;;;1.00;;
10009;SDS011;5044;48.652;9.250;2022-07-30T11:47:54;3.15;;;1.25;;
10009;SDS011;5044;48.652;9.250;2022-07-30T11:50:25;2.25;;;1.20;;
10009;SDS011;5044;48.652;9.250;2022-07-30T11:52:54;1.80;;;1.13;;
10009;SDS011;5044;48.652;9.250;2022-07-30T11:55:23;4.35;;;1.25;;
10009;SDS011;5044;48.652;9.250;2022-07-30T11:57:54;1.63;;;1.33;;
10009;SDS011;5044;48.652;9.250;2022-07-30T12:00:21;2.90;;;1.40;;
10009;SDS011;5044;48.652;9.250;2022-07-30T12:02:48;2.67;;;1.35;;
10009;SDS011;5044;48.652;9.250;2022-07-30T12:05:21;2.08;;;1.30;;
10009;SDS011;5044;48.652;9.250;2022-07-30T12:07:50;1.95;;;1.27;;
10009;SDS011;5044;48.652;9.250;2022-07-30T12:10:18;2.55;;;1.20;;
10009;SDS011;5044;48.652;9.250;2022-07-30T12:12:46;5.63;;;1.20;;
10009;SDS011;5044;48.652;9.250;2022-07-30T12:15:29;1.52;;;0.95;;
10009;SDS011;5044;48.652;9.250;2022-07-30T12:17:56;0.88;;;0.80;;
10009;SDS011;5044;48.652;9.250;2022-07-30T12:20:25;2.53;;;1.48;;
10009;SDS011;5044;48.652;9.250;2022-07-30T12:22:52;2.92;;;1.20;;
10009;SDS011;5044;48.652;9.250;2022-07-30T12:25:20;3.13;;;1.10;;
10009;SDS011;5044;48.652;9.250;2022-07-30T12:27:47;3.47;;;1.10;;
10009;SDS011;5044;48.652;9.250;2022-07-30T12:30:15;3.72;;;0.85;;
10009;SDS011;5044;48.652;9.250;2022-07-30T12:32:44;1.42;;;1.02;;
10009;SDS011;5044;48.652;9.250;2022-07-30T12:35:12;4.47;;;1.07;;
10009;SDS011;5044;48.652;9.250;2022-07-30T12:37:40;3.38;;;1.00;;
10009;SDS011;5044;48.652;9.250;2022-07-30T12:40:26;1.83;;;1.00;;
10009;SDS011;5044;48.652;9.250;2022-07-30T12:42:53;4.03;;;0.85;;
10009;SDS011;5044;48.652;9.250;2022-07-30T12:45:27;1.88;;;0.88;;
10009;SDS011;5044;48.652;9.250;2022-07-30T12:47:56;3.38;;;0.93;;
10009;SDS011;5044;48.652;9.250;2022-07-30T12:50:24;2.35;;;0.88;;
10009;SDS011;5044;48.652;9.250;2022-07-30T12:52:52;2.08;;;1.00;;
10009;SDS011;5044;48.652;9.250;2022-07-30T12:55:27;3.15;;;0.82;;
10009;SDS011;5044;48.652;9.250;2022-07-30T12:57:56;2.75;;;1.20;;
10009;SDS011;5044;48.652;9.250;2022-07-30T13:00:25;1.90;;;1.17;;
10009;SDS011;5044;48.652;9.250;2022-07-30T13:02:54;3.42;;;1.00;;
10009;SDS011;5044;48.652;9.250;2022-07-30T13:08:15;2.28;;;0.82;;
10009;SDS011;5044;48.652;9.250;2022-07-30T13:10:54;1.48;;;1.25;;
10009;SDS011;5044;48.652;9.250;2022-07-30T13:13:23;1.67;;;1.20;;
10009;SDS011;5044;48.652;9.250;2022-07-30T13:15:57;1.15;;;1.00;;
10009;SDS011;5044;48.652;9.250;2022-07-30T13:18:26;2.50;;;0.98;;
10009;SDS011;5044;48.652;9.250;2022-07-30T13:20:55;3.88;;;0.90;;
10009;SDS011;5044;48.652;9.250;2022-07-30T13:23:21;4.15;;;1.05;;
10009;SDS011;5044;48.652;9.250;2022-07-30T13:25:49;3.00;;;1.00;;
10009;SDS011;5044;48.652;9.250;2022-07-30T13:28:16;1.30;;;0.88;;
10009;SDS011;5044;48.652;9.250;2022-07-30T13:30:43;1.48;;;0.98;;
10009;SDS011;5044;48.652;9.250;2022-07-30T13:33:10;1.50;;;1.00;;
10009;SDS011;5044;48.652;9.250;2022-07-30T13:35:38;2.95;;;0.98;;
10009;SDS011;5044;48.652;9.250;2022-07-30T13:38:07;3.42;;;1.00;;
10009;SDS011;5044;48.652;9.250;2022-07-30T13:40:35;1.52;;;0.93;;
10009;SDS011;5044;48.652;9.250;2022-07-30T13:43:02;1.27;;;0.90;;
10009;SDS011;5044;48.652;9.250;2022-07-30T13:45:29;1.35;;;1.00;;
10009;SDS011;5044;48.652;9.250;2022-07-30T13:47:56;4.57;;;1.00;;
10009;SDS011;5044;48.652;9.250;2022-07-30T13:50:23;1.38;;;0.80;;
10009;SDS011;5044;48.652;9.250;2022-07-30T13:52:51;3.67;;;1.33;;
10009;SDS011;5044;48.652;9.250;2022-07-30T13:55:19;1.05;;;0.60;;
10009;SDS011;5044;48.652;9.250;2022-07-30T13:57:46;1.73;;;0.90;;
10009;SDS011;5044;48.652;9.250;2022-07-30T14:00:13;1.00;;;0.90;;
10009;SDS011;5044;48.652;9.250;2022-07-30T14:02:43;1.23;;;0.90;;
10009;SDS011;5044;48.652;9.250;2022-07-30T14:05:10;2.42;;;1.00;;
10009;SDS011;5044;48.652;9.250;2022-07-30T14:07:38;2.17;;;1.15;;
10009;SDS011;5044;48.652;9.250;2022-07-30T14:10:06;2.53;;;0.75;;
10009;SDS011;5044;48.652;9.250;2022-07-30T14:12:34;2.03;;;1.00;;
10009;SDS011;5044;48.652;9.250;2022-07-30T14:15:04;1.73;;;1.00;;
10009;SDS011;5044;48.652;9.250;2022-07-30T14:17:33;0.90;;;0.80;;
10009;SDS011;5044;48.652;9.250;2022-07-30T14:20:05;2.00;;;0.95;;
10009;SDS011;5044;48.652;9.250;2022-07-30T14:22:33;1.80;;;1.00;;
10009;SDS011;5044;48.652;9.250;2022-07-30T14:25:07;1.92;;;0.82;;
10009;SDS011;5044;48.652;9.250;2022-07-30T14:27:36;1.27;;;1.15;;
10009;SDS011;5044;48.652;9.250;2022-07-30T14:30:05;2.25;;;0.80;;
10009;SDS011;5044;48.652;9.250;2022-07-30T14:32:34;2.78;;;0.93;;
10009;SDS011;5044;48.652;9.250;2022-07-30T14:35:01;1.40;;;0.98;;
10009;SDS011;5044;48.652;9.250;2022-07-30T14:37:29;2.15;;;0.93;;
10009;SDS011;5044;48.652;9.250;2022-07-30T14:39:56;3.60;;;1.20;;
10009;SDS011;5044;48.652;9.250;2022-07-30T14:42:23;2.45;;;1.08;;
10009;SDS011;5044;48.652;9.250;2022-07-30T14:44:52;1.50;;;1.00;;
10009;SDS011;5044;48.652;9.250;2022-07-30T14:47:18;1.50;;;1.27;;
10009;SDS011;5044;48.652;9.250;2022-07-30T14:49:46;2.47;;;1.00;;
10009;SDS011;5044;48.652;9.250;2022-07-30T14:52:12;1.73;;;0.93;;
10009;SDS011;5044;48.652;9.250;2022-07-30T14:54:40;2.25;;;0.82;;
10009;SDS011;5044;48.652;9.250;2022-07-30T14:57:06;1.80;;;1.13;;
10009;SDS011;5044;48.652;9.250;2022-07-30T14:59:34;1.80;;;1.38;;
10009;SDS011;5044;48.652;9.250;2022-07-30T15:02:02;1.50;;;0.95;;
10009;SDS011;5044;48.652;9.250;2022-07-30T15:04:29;2.50;;;1.05;;
10009;SDS011;5044;48.652;9.250;2022-07-30T15:06:56;1.83;;;1.10;;
10009;SDS011;5044;48.652;9.250;2022-07-30T15:09:23;1.33;;;1.05;;
10009;SDS011;5044;48.652;9.250;2022-07-30T15:11:50;6.68;;;1.17;;
10009;SDS011;5044;48.652;9.250;2022-07-30T15:14:17;1.45;;;0.80;;
10009;SDS011;5044;48.652;9.250;2022-07-30T15:16:44;1.23;;;0.90;;
10009;SDS011;5044;48.652;9.250;2022-07-30T15:19:13;5.70;;;1.30;;
10009;SDS011;5044;48.652;9.250;2022-07-30T15:21:40;1.88;;;1.08;;
10009;SDS011;5044;48.652;9.250;2022-07-30T15:24:08;2.95;;;0.88;;
10009;SDS011;5044;48.652;9.250;2022-07-30T15:26:35;1.75;;;1.42;;
10009;SDS011;5044;48.652;9.250;2022-07-30T15:29:02;4.07;;;0.85;;